Time;durP1;ratioP1;P1;durP2;ratioP2;P2;SDS_P1;SDS_P2;PMS_P1;PMS_P2;Temp;Humidity;BMP_temperature;BMP_pressure;BME280_temperature;BME280_humidity;BME280_pressure;Samples;Min_cycle;Max_cycle;Signal;HPM_P1;HPM_P2
2022/09/04 00:01:52;;;;;;;0.03;0.03;;;;;;;12.36;100.00;101834.25;10407207;28;20488;-69
2022/09/04 00:07:25;;;;;;;0.10;0.10;;;;;;;12.43;100.00;101840.69;10408671;28;20071;-69
2022/09/04 00:12:32;;;;;;;0.10;0.10;;;;;;;12.44;100.00;101838.84;10404217;28;20038;-70
2022/09/04 00:17:43;;;;;;;0.00;0.00;;;;;;;12.45;100.00;101837.88;10390708;28;20083;-70
2022/09/04 00:23:19;;;;;;;0.00;0.00;;;;;;;12.45;100.00;101840.53;10396311;28;20025;-68
2022/09/04 00:28:34;;;;;;;0.00;0.00;;;;;;;12.40;100.00;101840.13;10408975;28;20032;-70
2022/09/04 00:33:53;;;;;;;0.08;0.08;;;;;;;12.27;100.00;101844.94;10395819;28;20451;-69
2022/09/04 00:38:59;;;;;;;0.10;0.10;;;;;;;12.10;100.00;101831.38;10408392;28;20495;-70
2022/09/04 00:44:22;;;;;;;0.10;0.10;;;;;;;12.01;100.00;101834.88;10390577;28;20545;-70
2022/09/04 00:49:58;;;;;;;0.10;0.10;;;;;;;11.93;100.00;101834.78;10408376;28;20029;-70
2022/09/04 00:55:16;;;;;;;0.08;0.08;;;;;;;11.88;100.00;101834.38;10372937;28;20160;-69
2022/09/04 01:00:19;;;;;;;0.00;0.00;;;;;;;11.88;100.00;101835.19;10435604;22;20087;-73
2022/09/04 01:05:31;;;;;;;0.00;0.00;;;;;;;11.88;100.00;101837.88;10406697;28;20060;-73
2022/09/04 01:10:50;;;;;;;0.00;0.00;;;;;;;11.88;100.00;101842.38;10413895;28;20044;-72
2022/09/04 01:16:23;;;;;;;0.00;0.00;;;;;;;11.87;100.00;101846.00;10388812;28;20109;-72
2022/09/04 01:21:36;;;;;;;0.03;0.03;;;;;;;11.82;100.00;101842.91;10409877;28;20037;-72
2022/09/04 01:26:46;;;;;;;0.10;0.10;;;;;;;11.77;100.00;101856.69;10414288;28;20117;-72
2022/09/04 01:31:47;;;;;;;0.00;0.00;;;;;;;11.76;100.00;101860.34;10413870;28;20110;-72
2022/09/04 01:37:06;;;;;;;0.00;0.00;;;;;;;11.67;100.00;101861.19;10416133;28;20110;-73
2022/09/04 01:42:19;;;;;;;0.00;0.00;;;;;;;11.50;100.00;101857.41;10409664;28;20383;-73
2022/09/04 01:47:50;;;;;;;0.10;0.10;;;;;;;11.32;100.00;101858.09;10453660;28;20032;-73
2022/09/04 01:53:01;;;;;;;0.00;0.00;;;;;;;11.15;100.00;101850.75;10406045;28;20489;-72
2022/09/04 01:58:28;;;;;;;0.10;0.10;;;;;;;11.02;100.00;101860.81;10415835;28;20400;-73
2022/09/04 02:03:42;;;;;;;0.00;0.00;;;;;;;10.85;100.00;101857.00;10412549;28;20021;-73
2022/09/04 02:08:54;;;;;;;0.10;0.10;;;;;;;10.72;100.00;101857.25;10429977;28;20013;-73
2022/09/04 02:14:26;;;;;;;0.00;0.00;;;;;;;10.63;100.00;101858.88;10451016;28;20507;-72
2022/09/04 02:19:45;;;;;;;0.00;0.00;;;;;;;10.56;100.00;101864.88;10453609;28;20192;-72
2022/09/04 02:24:45;;;;;;;0.00;0.00;;;;;;;10.49;100.00;101867.22;10415236;28;20029;-72
2022/09/04 02:30:06;;;;;;;0.00;0.00;;;;;;;10.42;100.00;101868.75;10412035;28;20103;-72
2022/09/04 02:35:16;;;;;;;0.00;0.00;;;;;;;10.34;100.00;101874.72;10410977;28;20100;-72
2022/09/04 02:40:30;;;;;;;0.00;0.00;;;;;;;10.29;100.00;101874.28;10415574;28;20028;-72
2022/09/04 02:46:09;;;;;;;0.00;0.00;;;;;;;10.25;100.00;101872.84;10415994;28;20101;-72
2022/09/04 02:51:33;;;;;;;0.00;0.00;;;;;;;10.21;100.00;101887.41;10411026;28;20021;-73
2022/09/04 02:57:08;;;;;;;0.03;0.03;;;;;;;10.20;100.00;101888.34;10416385;28;20498;-73
2022/09/04 03:02:27;;;;;;;0.00;0.00;;;;;;;10.21;100.00;101898.03;10396749;28;20041;-73
2022/09/04 03:07:38;;;;;;;0.00;0.00;;;;;;;10.19;100.00;101889.34;10410099;28;20017;-73
2022/09/04 03:12:48;;;;;;;0.00;0.00;;;;;;;10.13;100.00;101905.84;10410133;28;20041;-73
2022/09/04 03:18:17;;;;;;;0.00;0.00;;;;;;;10.04;100.00;101901.28;10415509;28;20464;-73
2022/09/04 03:23:33;;;;;;;0.08;0.08;;;;;;;9.96;100.00;101902.75;10416925;28;20037;-73
2022/09/04 03:28:52;;;;;;;0.00;0.00;;;;;;;9.87;100.00;101900.88;10409531;28;20017;-72
2022/09/04 03:34:10;;;;;;;0.10;0.10;;;;;;;9.81;100.00;101898.75;10408764;28;20022;-72
2022/09/04 03:39:31;;;;;;;0.10;0.10;;;;;;;9.75;100.00;101907.22;10409344;28;20074;-72
2022/09/04 03:44:41;;;;;;;0.00;0.00;;;;;;;9.46;100.00;101913.13;10448174;28;20251;-72
2022/09/04 03:50:15;;;;;;;0.00;0.00;;;;;;;9.27;100.00;101904.94;10423221;28;20572;-72
2022/09/04 03:55:44;;;;;;;0.00;0.00;;;;;;;9.17;100.00;101918.16;10418283;28;20025;-73
2022/09/04 04:01:08;;;;;;;0.10;0.10;;;;;;;9.15;100.00;101919.25;10408303;28;20029;-73
2022/09/04 04:06:46;;;;;;;0.10;0.10;;;;;;;9.12;100.00;101938.09;10408327;28;20029;-73
2022/09/04 04:12:05;;;;;;;0.00;0.00;;;;;;;9.05;100.00;101940.41;10408424;28;20072;-73
2022/09/04 04:17:35;;;;;;;0.00;0.00;;;;;;;9.10;100.00;101948.00;10390641;28;20372;-73
2022/09/04 04:23:04;;;;;;;0.00;0.00;;;;;;;9.22;100.00;101947.00;10348139;28;20037;-73
2022/09/04 04:28:58;;;;;;;0.00;0.00;;;;;;;9.33;100.00;101954.13;10428686;28;20507;-73
2022/09/04 04:34:05;;;;;;;0.00;0.00;;;;;;;9.30;100.00;101963.19;10436270;28;20024;-72
2022/09/04 04:39:18;;;;;;;0.00;0.00;;;;;;;9.27;100.00;101951.00;10448916;28;20021;-73
2022/09/04 04:45:48;;;;;;;0.00;0.00;;;;;;;9.24;100.00;101956.56;10441259;28;20033;-73
2022/09/04 04:50:04;;;;;;;0.00;0.00;;;;;;;9.25;100.00;101954.72;10407606;28;20455;-73
2022/09/04 04:55:11;;;;;;;0.00;0.00;;;;;;;9.41;100.00;101963.19;10425137;28;20029;-73
2022/09/04 05:00:19;;;;;;;0.03;0.03;;;;;;;10.17;100.00;101966.66;10423715;28;20035;-73
2022/09/04 05:05:45;;;;;;;0.10;0.10;;;;;;;11.28;100.00;101973.19;10437710;28;20480;-73
2022/09/04 05:11:18;;;;;;;0.10;0.10;;;;;;;12.68;100.00;101980.84;10456116;28;20368;-73
2022/09/04 05:16:29;;;;;;;0.10;0.10;;;;;;;13.65;100.00;101995.66;10455528;28;20023;-73
2022/09/04 05:21:43;;;;;;;0.10;0.10;;;;;;;14.84;100.00;102004.22;10452369;28;20025;-73
2022/09/04 05:26:53;;;;;;;0.10;0.10;;;;;;;16.05;100.00;102009.38;10449024;28;20044;-73
2022/09/04 05:32:11;;;;;;;0.10;0.10;;;;;;;17.27;96.46;102008.38;10441488;28;20462;-73
2022/09/04 05:37:17;;;;;;;0.20;0.20;;;;;;;18.37;90.58;102013.63;10433102;28;20384;-72
2022/09/04 05:42:40;;;;;;;0.10;0.10;;;;;;;19.43;84.43;102019.75;10413757;28;20419;-72
2022/09/04 05:48:08;;;;;;;0.10;0.10;;;;;;;20.08;80.46;102020.75;10413591;28;20021;-72
2022/09/04 05:53:40;;;;;;;0.10;0.10;;;;;;;20.38;76.74;102016.00;10417865;28;20037;-73
2022/09/04 05:59:03;;;;;;;0.10;0.10;;;;;;;20.33;73.30;102030.16;10412791;28;20037;-73
2022/09/04 06:04:25;;;;;;;0.10;0.10;;;;;;;20.20;72.03;102026.47;10445656;28;20103;-73
2022/09/04 06:09:38;;;;;;;0.10;0.10;;;;;;;20.41;72.26;102034.56;10413221;28;20026;-73
2022/09/04 06:15:01;;;;;;;0.03;0.03;;;;;;;20.56;69.53;102037.22;10394534;28;20264;-72
2022/09/04 06:20:17;;;;;;;0.10;0.10;;;;;;;20.76;70.01;102043.63;10402775;28;20107;-72
2022/09/04 06:25:38;;;;;;;0.05;0.05;;;;;;;20.86;69.87;102037.03;10413870;28;20112;-72
2022/09/04 06:30:47;;;;;;;0.00;0.00;;;;;;;20.94;67.16;102028.72;10411888;28;20048;-73
2022/09/04 06:36:14;;;;;;;0.10;0.10;;;;;;;21.10;67.09;102041.97;10411536;28;20104;-73
2022/09/04 06:41:17;;;;;;;0.00;0.00;;;;;;;21.40;66.18;102039.03;10422550;28;20392;-73
2022/09/04 06:46:25;;;;;;;;;;;;;;;21.61;62.13;102038.94;10412057;28;20025;-73
2022/09/04 06:51:42;;;;;;;0.00;0.00;;;;;;;21.62;61.93;102034.34;10412249;28;19920;-72
2022/09/04 06:57:05;;;;;;;0.00;0.00;;;;;;;22.05;59.78;102044.84;10398878;28;20017;-73
2022/09/04 07:02:33;;;;;;;0.00;0.00;;;;;;;22.12;59.26;102043.00;10410548;28;20116;-73
2022/09/04 07:07:46;;;;;;;0.00;0.00;;;;;;;22.76;56.83;102055.19;10410561;28;20021;-73
2022/09/04 07:12:55;;;;;;;0.00;0.00;;;;;;;22.59;55.78;102063.75;10415363;28;20017;-73
2022/09/04 07:18:47;;;;;;;0.10;0.10;;;;;;;22.49;55.40;102066.06;10450466;28;20420;-73
2022/09/04 07:24:01;;;;;;;0.00;0.00;;;;;;;22.57;54.93;102068.56;10401987;28;20057;-73
2022/09/04 07:29:11;;;;;;;0.05;0.05;;;;;;;22.97;55.98;102076.69;10409467;28;20021;-73
2022/09/04 07:34:34;;;;;;;0.00;0.00;;;;;;;22.93;55.14;102077.31;10448378;28;20024;-73
2022/09/04 07:40:03;;;;;;;0.00;0.00;;;;;;;23.25;53.94;102086.47;10450250;28;20013;-73
2022/09/04 07:45:21;;;;;;;0.00;0.00;;;;;;;23.31;52.94;102095.66;10442575;28;20064;-73
2022/09/04 07:50:28;;;;;;;0.10;0.10;;;;;;;23.37;53.73;102083.94;10431107;28;20021;-73
2022/09/04 07:55:49;;;;;;;0.00;0.00;;;;;;;23.13;53.70;102093.63;10411913;28;20025;-73
2022/09/04 08:01:01;;;;;;;0.10;0.10;;;;;;;23.05;53.16;102086.50;10391079;28;20036;-74
2022/09/04 08:06:18;;;;;;;0.10;0.10;;;;;;;23.23;54.06;102094.84;10408492;28;20033;-73
2022/09/04 08:11:38;;;;;;;0.00;0.00;;;;;;;22.78;54.89;102112.84;10448334;28;20716;-74
2022/09/04 08:17:01;;;;;;;0.10;0.10;;;;;;;22.75;54.09;102111.38;10439528;28;20018;-73
2022/09/04 08:22:03;;;;;;;0.00;0.00;;;;;;;23.17;56.35;102114.72;10407897;28;20029;-73
2022/09/04 08:27:28;;;;;;;0.10;0.10;;;;;;;23.54;53.92;102114.22;10407621;28;20457;-73
2022/09/04 08:32:53;;;;;;;0.00;0.00;;;;;;;23.62;53.68;102114.81;10408688;28;20045;-73
2022/09/04 08:38:00;;;;;;;0.00;0.00;;;;;;;23.68;53.47;102113.94;10414785;28;20215;-73
2022/09/04 08:43:38;;;;;;;0.10;0.10;;;;;;;23.96;53.31;102120.97;10415971;28;20033;-73
2022/09/04 08:49:16;;;;;;;0.00;0.00;;;;;;;24.30;52.47;102117.00;10454479;28;20082;-73
2022/09/04 08:54:36;;;;;;;0.00;0.00;;;;;;;23.38;54.81;102112.78;10427691;28;20101;-73
2022/09/04 09:00:03;;;;;;;0.00;0.00;;;;;;;22.97;55.62;102119.34;10453628;28;20025;-74
2022/09/04 09:05:16;;;;;;;0.00;0.00;;;;;;;23.05;56.50;102114.53;10413980;28;20391;-73
2022/09/04 09:10:37;;;;;;;0.10;0.10;;;;;;;23.19;55.74;102122.66;10415293;28;20017;-74
2022/09/04 09:15:49;;;;;;;0.00;0.00;;;;;;;23.32;55.47;102124.50;10414539;28;20021;-73
2022/09/04 09:21:00;;;;;;;0.00;0.00;;;;;;;23.23;56.78;102127.44;10414749;28;20032;-73
2022/09/04 09:26:22;;;;;;;0.00;0.00;;;;;;;23.54;55.87;102131.38;10425801;28;20432;-73
2022/09/04 09:31:41;;;;;;;0.00;0.00;;;;;;;23.64;55.65;102128.19;10455268;28;20434;-73
2022/09/04 09:37:11;;;;;;;0.00;0.00;;;;;;;23.32;54.45;102124.50;10452977;28;20427;-73
2022/09/04 09:42:34;;;;;;;0.00;0.00;;;;;;;23.44;54.30;102123.63;10454855;28;20028;-73
2022/09/04 09:48:03;;;;;;;0.00;0.00;;;;;;;23.25;54.26;102119.94;10435817;28;20404;-74
2022/09/04 09:53:21;;;;;;;0.10;0.10;;;;;;;23.18;55.51;102126.41;10436694;28;20508;-73
2022/09/04 09:58:43;;;;;;;0.00;0.00;;;;;;;23.24;54.83;102120.13;10398219;28;20021;-73
2022/09/04 10:03:51;;;;;;;0.00;0.00;;;;;;;22.98;54.76;102121.84;10444714;28;20503;-74
2022/09/04 10:09:09;;;;;;;0.10;0.10;;;;;;;23.33;54.75;102121.59;10453926;28;20029;-73
2022/09/04 10:14:25;;;;;;;0.00;0.00;;;;;;;23.60;53.39;102118.78;10453460;28;20036;-73
2022/09/04 10:19:47;;;;;;;0.00;0.00;;;;;;;23.75;53.80;102113.94;10453446;28;20025;-73
2022/09/04 10:25:06;;;;;;;0.00;0.00;;;;;;;23.89;52.84;102115.56;10423123;28;20032;-73
2022/09/04 10:30:15;;;;;;;0.00;0.00;;;;;;;23.55;52.52;102107.72;10411935;28;20037;-74
2022/09/04 10:35:41;;;;;;;0.00;0.00;;;;;;;23.83;51.70;102113.72;10448524;28;20025;-73
2022/09/04 10:41:00;;;;;;;0.10;0.10;;;;;;;23.81;51.62;102117.69;10411491;28;20075;-73
2022/09/04 10:46:16;;;;;;;0.00;0.00;;;;;;;23.80;50.69;102110.59;10411589;28;20112;-74
2022/09/04 10:51:44;;;;;;;0.00;0.00;;;;;;;23.76;47.91;102109.34;10449394;28;20023;-73
2022/09/04 10:57:20;;;;;;;0.00;0.00;;;;;;;23.92;48.54;102098.81;10406873;28;20057;-73
2022/09/04 11:02:48;;;;;;;0.00;0.00;;;;;;;24.00;48.29;102110.47;10410925;28;20029;-73
2022/09/04 11:08:27;;;;;;;0.10;0.10;;;;;;;24.02;48.48;102108.38;10412844;28;20454;-73
2022/09/04 11:13:55;;;;;;;0.10;0.10;;;;;;;23.97;47.37;102097.31;10410828;28;20075;-73
2022/09/04 11:19:10;;;;;;;0.00;0.00;;;;;;;23.74;47.04;102098.69;10410683;28;20021;-73
2022/09/04 11:24:36;;;;;;;0.00;0.00;;;;;;;23.63;48.96;102088.44;10409720;28;20041;-73
2022/09/04 11:29:42;;;;;;;0.00;0.00;;;;;;;23.95;48.93;102090.19;10389245;28;21525;-73
2022/09/04 11:35:12;;;;;;;0.00;0.00;;;;;;;24.20;47.94;102092.13;10409157;28;20032;-73
2022/09/04 11:40:33;;;;;;;0.00;0.00;;;;;;;24.15;47.57;102091.97;10410411;28;20575;-73
2022/09/04 11:46:00;;;;;;;0.00;0.00;;;;;;;24.06;47.59;102101.47;10392242;28;20443;-73
2022/09/04 11:51:27;;;;;;;0.00;0.00;;;;;;;24.03;47.23;102083.69;10449053;28;20446;-74
2022/09/04 11:56:54;;;;;;;0.00;0.00;;;;;;;24.04;47.23;102084.50;10412593;28;20022;-73
2022/09/04 12:02:14;;;;;;;0.00;0.00;;;;;;;24.16;47.18;102089.03;10408249;28;20025;-73
2022/09/04 12:07:32;;;;;;;0.00;0.00;;;;;;;24.27;47.07;102084.78;10448290;28;20476;-73
2022/09/04 12:12:41;;;;;;;0.10;0.10;;;;;;;24.34;46.65;102085.56;10414446;28;20017;-73
2022/09/04 12:18:03;;;;;;;0.00;0.00;;;;;;;24.39;46.46;102087.63;10409821;28;20465;-73
2022/09/04 12:23:14;;;;;;;0.00;0.00;;;;;;;24.45;46.61;102091.38;10427122;28;20112;-73
2022/09/04 12:28:33;;;;;;;0.00;0.00;;;;;;;24.27;45.68;102086.66;10409132;28;20025;-73
2022/09/04 12:34:02;;;;;;;0.00;0.00;;;;;;;24.27;46.16;102082.06;10390633;28;20025;-73
2022/09/04 12:39:17;;;;;;;0.00;0.00;;;;;;;24.08;46.81;102083.00;10408309;28;20404;-73
2022/09/04 12:44:43;;;;;;;0.00;0.00;;;;;;;23.99;48.13;102076.16;10408374;28;20028;-73
2022/09/04 12:50:15;;;;;;;0.00;0.00;;;;;;;23.92;45.52;102097.97;10431947;28;20170;-73
2022/09/04 12:55:29;;;;;;;0.00;0.00;;;;;;;23.94;48.03;102091.25;10413353;28;20021;-73
2022/09/04 13:00:39;;;;;;;0.00;0.00;;;;;;;24.17;47.82;102084.41;10407479;28;20029;-73
2022/09/04 13:06:02;;;;;;;0.00;0.00;;;;;;;24.36;46.54;102085.34;10400688;22;20052;-72
2022/09/04 13:11:13;;;;;;;0.00;0.00;;;;;;;24.51;46.99;102083.16;10368379;28;20026;-72
2022/09/04 13:16:42;;;;;;;0.00;0.00;;;;;;;24.44;47.00;102089.72;10367655;28;20014;-72
2022/09/04 13:22:07;;;;;;;0.00;0.00;;;;;;;24.62;46.20;102092.50;10369632;28;20022;-72
2022/09/04 13:27:25;;;;;;;0.10;0.10;;;;;;;24.45;44.47;102105.00;10375495;28;20037;-72
2022/09/04 13:32:53;;;;;;;0.00;0.00;;;;;;;24.24;45.09;102089.84;10375265;28;20499;-72
2022/09/04 13:38:08;;;;;;;0.00;0.00;;;;;;;24.35;47.11;102086.41;10375239;28;20029;-72
2022/09/04 13:43:41;;;;;;;0.10;0.10;;;;;;;24.46;45.28;102096.59;10374813;28;20021;-72
2022/09/04 13:48:45;;;;;;;0.00;0.00;;;;;;;24.46;45.40;102103.94;10374369;28;20459;-72
2022/09/04 13:53:53;;;;;;;0.00;0.00;;;;;;;24.43;45.99;102101.66;10374446;28;20025;-73
2022/09/04 13:58:59;;;;;;;0.00;0.00;;;;;;;24.50;46.71;102102.47;10357319;28;20026;-73
2022/09/04 14:04:10;;;;;;;0.00;0.00;;;;;;;24.54;46.71;102095.50;10373800;28;20370;-73
2022/09/04 14:09:10;;;;;;;0.10;0.10;;;;;;;24.44;45.57;102100.63;10374597;28;20033;-73
2022/09/04 14:14:29;;;;;;;0.00;0.00;;;;;;;24.51;46.83;102093.22;10373696;28;20042;-72
2022/09/04 14:19:45;;;;;;;0.00;0.00;;;;;;;24.29;45.48;102096.28;10355948;28;20045;-72
2022/09/04 14:25:14;;;;;;;0.00;0.00;;;;;;;24.07;45.67;102101.22;10355759;28;20120;-72
2022/09/04 14:30:17;;;;;;;0.05;0.05;;;;;;;23.95;47.13;102105.69;10356240;28;20378;-73
2022/09/04 14:35:34;;;;;;;0.00;0.00;;;;;;;24.02;46.37;102109.22;10372705;28;20493;-72
2022/09/04 14:40:42;;;;;;;0.00;0.00;;;;;;;24.17;47.85;102098.88;10372695;28;20491;-73
2022/09/04 14:46:15;;;;;;;0.00;0.00;;;;;;;24.24;46.99;102107.00;10372540;28;20068;-72
2022/09/04 14:51:21;;;;;;;0.10;0.10;;;;;;;24.35;47.37;102105.47;10354632;28;20127;-73
2022/09/04 14:56:46;;;;;;;0.00;0.00;;;;;;;24.33;46.68;102102.94;10354512;28;20032;-73
2022/09/04 15:02:05;;;;;;;0.00;0.00;;;;;;;24.31;46.27;102104.22;10371820;28;20105;-73
2022/09/04 15:07:42;;;;;;;0.00;0.00;;;;;;;24.21;46.55;102103.88;10371648;28;20030;-73
2022/09/04 15:12:52;;;;;;;0.00;0.00;;;;;;;24.11;47.74;102110.63;10371560;28;20033;-73
2022/09/04 15:18:39;;;;;;;0.00;0.00;;;;;;;24.09;47.36;102103.75;10353768;28;20033;-73
2022/09/04 15:24:00;;;;;;;0.00;0.00;;;;;;;24.01;47.53;102101.28;10351330;28;20066;-73
2022/09/04 15:29:17;;;;;;;0.00;0.00;;;;;;;23.95;47.54;102109.25;10353318;28;20025;-73
2022/09/04 15:34:23;;;;;;;0.00;0.00;;;;;;;23.87;47.94;102104.06;10353022;28;20087;-74
2022/09/04 15:39:50;;;;;;;0.00;0.00;;;;;;;23.90;48.26;102111.78;10370332;28;20029;-73
2022/09/04 15:44:50;;;;;;;0.00;0.00;;;;;;;23.92;46.33;102103.41;10362798;28;20034;-73
2022/09/04 15:49:56;;;;;;;0.00;0.00;;;;;;;23.90;48.13;102111.78;10370165;28;20014;-73
2022/09/04 15:55:08;;;;;;;0.00;0.00;;;;;;;23.81;47.65;102104.91;10370057;28;20076;-72
2022/09/04 16:00:16;;;;;;;0.00;0.00;;;;;;;23.75;47.38;102103.06;10369880;28;20017;-73
2022/09/04 16:05:32;;;;;;;0.10;0.10;;;;;;;23.68;48.47;102102.25;10369508;28;20116;-73
2022/09/04 16:10:42;;;;;;;0.00;0.00;;;;;;;23.62;47.98;102103.94;10351994;28;20392;-73
2022/09/04 16:15:45;;;;;;;0.00;0.00;;;;;;;23.56;47.93;102103.94;10369958;28;20105;-73
2022/09/04 16:20:57;;;;;;;0.10;0.10;;;;;;;23.50;48.66;102106.50;10368953;28;20508;-73
2022/09/04 16:26:09;;;;;;;0.00;0.00;;;;;;;23.47;48.81;102114.22;10369517;28;20643;-73
2022/09/04 16:31:21;;;;;;;0.00;0.00;;;;;;;23.40;49.40;102105.25;10369007;28;20060;-72
2022/09/04 16:36:34;;;;;;;0.10;0.10;;;;;;;23.28;49.71;102108.63;10367613;28;20042;-73
2022/09/04 16:41:42;;;;;;;0.00;0.00;;;;;;;23.17;49.84;102111.16;10368056;28;20049;-73
2022/09/04 16:46:59;;;;;;;0.00;0.00;;;;;;;23.05;49.60;102110.97;10369346;28;20026;-73
2022/09/04 16:52:25;;;;;;;0.10;0.10;;;;;;;22.92;50.94;102110.94;10368773;28;20033;-73
2022/09/04 16:57:32;;;;;;;0.00;0.00;;;;;;;22.73;52.01;102118.91;10373081;28;20076;-74
2022/09/04 17:02:45;;;;;;;0.00;0.00;;;;;;;22.53;52.54;102121.59;10359059;28;20034;-73
2022/09/04 17:07:52;;;;;;;0.00;0.00;;;;;;;22.35;53.59;102124.09;10358730;28;20030;-72
2022/09/04 17:13:00;;;;;;;0.00;0.00;;;;;;;22.14;54.72;102115.03;10376094;28;20033;-72
2022/09/04 17:18:06;;;;;;;0.00;0.00;;;;;;;21.96;55.16;102112.03;10376409;28;20497;-73
2022/09/04 17:23:38;;;;;;;0.05;0.05;;;;;;;21.79;56.14;102122.44;10376129;28;20409;-72
2022/09/04 17:28:58;;;;;;;0.00;0.00;;;;;;;21.58;56.61;102122.50;10358652;28;20037;-72
2022/09/04 17:34:18;;;;;;;0.00;0.00;;;;;;;21.45;55.79;102123.28;10376398;28;20026;-72
2022/09/04 17:39:28;;;;;;;0.00;0.00;;;;;;;21.35;56.31;102130.91;10358679;28;20084;-72
2022/09/04 17:44:53;;;;;;;0.00;0.00;;;;;;;21.20;56.58;102126.44;10375847;28;20036;-72
2022/09/04 17:49:56;;;;;;;0.10;0.10;;;;;;;20.93;56.67;102132.69;10375246;28;20473;-72
2022/09/04 17:55:09;;;;;;;0.00;0.00;;;;;;;20.57;58.42;102141.75;10374714;28;20062;-73
2022/09/04 18:00:19;;;;;;;0.10;0.10;;;;;;;20.30;59.93;102138.75;10356742;28;20026;-73
2022/09/04 18:05:50;;;;;;;0.05;0.05;;;;;;;20.11;61.36;102148.31;10374167;28;20057;-73
2022/09/04 18:11:12;;;;;;;0.00;0.00;;;;;;;19.89;62.17;102158.22;10356009;28;20105;-72
2022/09/04 18:16:33;;;;;;;0.10;0.10;;;;;;;19.67;63.15;102168.13;10333144;28;20037;-73
2022/09/04 18:21:43;;;;;;;0.10;0.10;;;;;;;19.39;64.84;102159.78;10349674;28;20072;-73
2022/09/04 18:26:55;;;;;;;0.10;0.10;;;;;;;19.35;65.82;102163.91;10355503;28;20117;-73
2022/09/04 18:32:05;;;;;;;0.00;0.00;;;;;;;19.27;66.61;102168.56;10373497;28;20021;-72
2022/09/04 18:37:20;;;;;;;0.10;0.10;;;;;;;19.19;67.69;102180.25;10368753;28;20022;-72
2022/09/04 18:42:30;;;;;;;0.00;0.00;;;;;;;19.17;67.79;102176.94;10369630;28;20017;-72
2022/09/04 18:47:46;;;;;;;0.00;0.00;;;;;;;19.16;67.98;102188.72;10369530;28;20037;-72
2022/09/04 18:53:08;;;;;;;0.10;0.10;;;;;;;19.11;68.20;102202.81;10370265;28;20037;-72
2022/09/04 18:58:11;;;;;;;0.10;0.10;;;;;;;19.13;68.15;102208.00;10369940;28;20026;-72
2022/09/04 19:08:27;;;;;;;0.00;0.00;;;;;;;18.89;69.03;102207.19;10442084;28;20572;-73
2022/09/04 19:13:35;;;;;;;0.10;0.10;;;;;;;18.77;69.11;102212.16;10450162;28;20119;-74
2022/09/04 19:18:44;;;;;;;0.10;0.10;;;;;;;18.64;69.78;102213.75;10450437;28;20088;-73
2022/09/04 19:24:09;;;;;;;0.10;0.10;;;;;;;18.48;70.07;102210.13;10430017;28;20028;-73
2022/09/04 19:29:16;;;;;;;0.00;0.00;;;;;;;18.35;71.08;102207.16;10427315;28;20017;-74
2022/09/04 19:34:36;;;;;;;0.10;0.10;;;;;;;18.15;71.60;102217.56;10409978;28;20479;-74
2022/09/04 19:39:49;;;;;;;0.08;0.08;;;;;;;18.04;72.03;102226.03;10409852;28;20609;-74
2022/09/04 19:44:54;;;;;;;0.10;0.10;;;;;;;17.94;72.54;102226.22;10410142;28;20021;-74
2022/09/04 19:50:18;;;;;;;0.00;0.00;;;;;;;17.87;72.91;102222.56;10415223;28;20355;-74
2022/09/04 19:55:34;;;;;;;0.10;0.10;;;;;;;17.77;72.90;102232.63;10441661;28;20028;-74
2022/09/04 20:00:41;;;;;;;0.00;0.00;;;;;;;17.64;73.08;102227.78;10450441;28;20032;-74
2022/09/04 20:05:51;;;;;;;0.10;0.10;;;;;;;17.58;73.18;102228.47;10420501;28;20025;-73
2022/09/04 20:10:57;;;;;;;0.00;0.00;;;;;;;17.47;73.33;102237.75;10449864;28;20025;-73
2022/09/04 20:16:07;;;;;;;0.10;0.10;;;;;;;17.33;73.70;102236.59;10427280;28;20025;-73
2022/09/04 20:21:16;;;;;;;0.10;0.10;;;;;;;17.19;74.54;102243.50;10413993;28;20033;-73
2022/09/04 20:26:20;;;;;;;0.10;0.10;;;;;;;17.06;74.56;102242.31;10434201;28;20025;-74
2022/09/04 20:31:21;;;;;;;0.10;0.10;;;;;;;16.95;75.27;102254.25;10454154;28;20025;-73
2022/09/04 20:36:27;;;;;;;0.10;0.10;;;;;;;16.85;75.67;102256.25;10444561;28;20025;-73
2022/09/04 20:41:45;;;;;;;0.10;0.10;;;;;;;16.69;76.09;102251.63;10462898;28;20021;-74
2022/09/04 20:47:18;;;;;;;0.10;0.10;;;;;;;16.59;76.15;102262.56;10462366;28;20027;-74
2022/09/04 20:52:25;;;;;;;0.10;0.10;;;;;;;16.42;76.67;102261.66;10441748;28;20261;-73
2022/09/04 20:57:40;;;;;;;0.03;0.03;;;;;;;16.20;77.95;102273.84;10440342;28;20040;-73
2022/09/04 21:02:56;;;;;;;0.10;0.10;;;;;;;15.97;80.54;102272.69;10462806;28;20389;-73
2022/09/04 21:08:18;;;;;;;0.00;0.00;;;;;;;15.71;82.23;102281.63;10459602;28;20020;-73
2022/09/04 21:13:23;;;;;;;0.10;0.10;;;;;;;15.60;82.55;102289.91;10444507;28;20480;-73
2022/09/04 21:18:46;;;;;;;0.10;0.10;;;;;;;15.60;81.45;102293.44;10462145;28;20024;-73
2022/09/04 21:24:17;;;;;;;0.10;0.10;;;;;;;15.75;80.81;102298.28;10458253;28;20037;-72
2022/09/04 21:29:45;;;;;;;0.10;0.10;;;;;;;16.00;79.19;102301.97;10423548;28;20462;-72
2022/09/04 21:35:00;;;;;;;0.10;0.10;;;;;;;16.07;78.35;102303.84;10424054;28;20033;-72
2022/09/04 21:40:40;;;;;;;0.10;0.10;;;;;;;16.11;77.91;102309.72;10402591;28;20150;-73
2022/09/04 21:46:14;;;;;;;0.10;0.10;;;;;;;16.03;77.97;102310.56;10413395;28;20100;-73
2022/09/04 21:51:39;;;;;;;0.10;0.10;;;;;;;16.05;77.60;102316.59;10396472;28;20428;-73
2022/09/04 21:56:50;;;;;;;0.10;0.10;;;;;;;16.22;77.08;102311.31;10453571;28;20047;-73
2022/09/04 22:02:06;;;;;;;0.20;0.20;;;;;;;16.31;76.69;102304.97;10455282;28;20054;-73
2022/09/04 22:07:44;;;;;;;0.03;0.03;;;;;;;16.32;76.87;102311.19;10454416;28;20067;-72
2022/09/04 22:13:03;;;;;;;0.10;0.10;;;;;;;16.27;76.98;102309.00;10433239;28;20029;-74
2022/09/04 22:18:38;;;;;;;0.00;0.00;;;;;;;16.23;77.97;102316.53;10453156;28;20431;-73
2022/09/04 22:24:08;;;;;;;0.10;0.10;;;;;;;16.23;78.17;102323.75;10453510;28;20021;-73
2022/09/04 22:29:17;;;;;;;0.10;0.10;;;;;;;16.23;77.91;102319.22;10452529;28;20508;-73
2022/09/04 22:34:59;;;;;;;0.10;0.10;;;;;;;16.21;78.44;102318.53;10453100;28;20116;-73
2022/09/04 22:40:11;;;;;;;0.10;0.10;;;;;;;16.22;78.65;102322.91;10448168;28;20024;-73
2022/09/04 22:45:31;;;;;;;0.00;0.00;;;;;;;16.32;78.94;102327.31;10419771;28;20530;-73
2022/09/04 22:50:56;;;;;;;0.10;0.10;;;;;;;16.39;78.73;102325.69;10411570;28;20029;-73
2022/09/04 22:55:58;;;;;;;0.10;0.10;;;;;;;16.47;79.02;102323.03;10411038;28;20018;-73
2022/09/04 23:01:28;;;;;;;0.10;0.10;;;;;;;16.55;78.71;102325.78;10411404;28;20542;-73
2022/09/04 23:06:45;;;;;;;0.10;0.10;;;;;;;16.64;78.04;102326.63;10411253;28;20032;-73
2022/09/04 23:11:52;;;;;;;0.10;0.10;;;;;;;16.70;77.29;102318.75;10428007;28;20025;-73
2022/09/04 23:17:34;;;;;;;0.00;0.00;;;;;;;16.69;77.36;102308.16;10433493;28;20527;-73
2022/09/04 23:22:43;;;;;;;0.10;0.10;;;;;;;16.59;77.60;102310.97;10417976;28;20495;-73
2022/09/04 23:28:01;;;;;;;0.10;0.10;;;;;;;16.43;78.92;102313.59;10450974;28;20051;-73
2022/09/04 23:33:40;;;;;;;0.00;0.00;;;;;;;16.26;79.36;102302.78;10450843;28;20059;-73
2022/09/04 23:38:56;;;;;;;0.10;0.10;;;;;;;16.06;80.05;102304.03;10450891;28;20289;-73
2022/09/04 23:44:24;;;;;;;0.10;0.10;;;;;;;15.87;81.53;102302.38;10437269;28;20147;-73
2022/09/04 23:49:33;;;;;;;0.10;0.10;;;;;;;15.68;82.38;102294.50;10450629;28;20044;-73
2022/09/04 23:54:39;;;;;;;0.10;0.10;;;;;;;15.54;83.43;102298.59;10450018;28;20027;-73
2022/09/04 23:59:57;;;;;;;0.05;0.05;;;;;;;15.45;84.42;102303.06;10449983;28;20112;-73
